createdAt,value
2022-10-13T00:01:53.177Z,11.13
2022-10-13T00:04:19.932Z,11.07
2022-10-13T00:06:46.713Z,11.01
2022-10-13T00:09:13.647Z,10.94
2022-10-13T00:11:40.323Z,10.90
2022-10-13T00:14:06.988Z,10.84
2022-10-13T00:16:35.436Z,10.74
2022-10-13T00:19:02.226Z,10.72
2022-10-13T00:21:29.141Z,10.71
2022-10-13T00:23:56.434Z,10.68
2022-10-13T00:26:24.955Z,10.57
2022-10-13T00:28:53.185Z,10.47
2022-10-13T00:31:24.465Z,10.58
2022-10-13T00:33:52.914Z,10.56
2022-10-13T00:36:22.621Z,10.58
2022-10-13T00:38:49.312Z,10.51
2022-10-13T00:41:16.140Z,10.54
2022-10-13T00:43:57.796Z,10.46
2022-10-13T00:46:31.831Z,10.57
2022-10-13T00:49:03.676Z,10.58
2022-10-13T00:51:33.678Z,10.53
2022-10-13T00:54:01.641Z,10.50
2022-10-13T00:56:29.564Z,10.42
2022-10-13T00:58:57.274Z,10.39
2022-10-13T01:01:24.013Z,10.26
2022-10-13T01:03:50.819Z,10.29
2022-10-13T01:06:22.643Z,10.32
2022-10-13T01:08:50.251Z,10.27
2022-10-13T01:11:35.329Z,10.31
2022-10-13T01:14:20.591Z,10.22
2022-10-13T01:16:58.021Z,10.14
2022-10-13T01:19:30.692Z,10.09
2022-10-13T01:22:15.774Z,9.94
2022-10-13T01:25:20.291Z,9.97
2022-10-13T01:27:46.923Z,10.03
2022-10-13T01:30:17.193Z,9.95
2022-10-13T01:33:22.529Z,9.94
2022-10-13T01:36:00.954Z,9.92
2022-10-13T01:38:36.574Z,9.83
2022-10-13T01:41:10.779Z,9.82
2022-10-13T01:43:51.837Z,9.89
2022-10-13T01:46:24.868Z,9.81
2022-10-13T01:48:55.378Z,9.84
2022-10-13T01:51:25.243Z,9.84
2022-10-13T01:53:52.792Z,9.77
2022-10-13T01:56:19.577Z,9.73
2022-10-13T01:58:49.849Z,9.79
2022-10-13T02:01:25.656Z,9.68
2022-10-13T02:04:20.176Z,9.71
2022-10-13T02:06:57.944Z,9.70
2022-10-13T02:09:28.169Z,9.67
2022-10-13T02:12:10.075Z,9.58
2022-10-13T02:14:42.566Z,9.54
2022-10-13T02:17:10.407Z,9.49
2022-10-13T02:19:39.357Z,9.49
2022-10-13T02:22:08.315Z,9.52
2022-10-13T02:24:35.865Z,9.51
2022-10-13T02:27:05.183Z,9.48
2022-10-13T02:29:31.938Z,9.50
2022-10-13T02:31:58.832Z,9.47
2022-10-13T02:34:26.092Z,9.51
2022-10-13T02:36:52.729Z,9.54
2022-10-13T02:39:19.360Z,9.54
2022-10-13T02:41:46.448Z,9.54
2022-10-13T02:44:13.133Z,9.54
2022-10-13T02:46:42.418Z,9.48
2022-10-13T02:49:10.627Z,9.55
2022-10-13T02:51:40.147Z,9.57
2022-10-13T02:54:07.520Z,9.58
2022-10-13T02:56:34.239Z,9.54
2022-10-13T02:59:00.890Z,9.54
2022-10-13T03:01:27.965Z,9.56
2022-10-13T03:03:54.796Z,9.54
2022-10-13T03:06:21.866Z,9.46
2022-10-13T03:08:48.600Z,9.46
2022-10-13T03:11:15.302Z,9.43
2022-10-13T03:13:41.966Z,9.37
2022-10-13T03:16:08.923Z,9.30
2022-10-13T03:18:35.625Z,9.26
2022-10-13T03:21:06.558Z,9.18
2022-10-13T03:23:34.227Z,9.14
2022-10-13T03:26:00.955Z,9.09
2022-10-13T03:28:28.637Z,9.06
2022-10-13T03:31:03.549Z,9.10
2022-10-13T03:33:30.284Z,9.05
2022-10-13T03:36:01.941Z,9.05
2022-10-13T03:38:30.472Z,9.07
2022-10-13T03:40:57.319Z,8.99
2022-10-13T03:43:25.472Z,9.03
2022-10-13T03:45:59.900Z,8.96
2022-10-13T03:48:27.347Z,9.00
2022-10-13T03:50:57.062Z,9.00
2022-10-13T03:53:24.373Z,8.99
2022-10-13T03:55:53.050Z,9.04
2022-10-13T03:58:21.024Z,9.07
2022-10-13T04:00:50.328Z,9.16
2022-10-13T04:03:17.249Z,9.16
2022-10-13T04:05:44.112Z,9.14
2022-10-13T04:08:11.601Z,9.14
2022-10-13T04:10:39.035Z,9.14
2022-10-13T04:13:06.102Z,9.10
2022-10-13T04:15:40.342Z,9.12
2022-10-13T04:18:08.063Z,9.12
2022-10-13T04:20:38.322Z,8.91
2022-10-13T04:23:05.291Z,8.74
2022-10-13T04:25:35.549Z,8.66
2022-10-13T04:28:03.938Z,8.65
2022-10-13T04:30:35.004Z,8.58
2022-10-13T04:33:01.876Z,8.53
2022-10-13T04:35:29.052Z,8.63
2022-10-13T04:37:58.040Z,8.66
2022-10-13T04:40:25.955Z,8.61
2022-10-13T04:42:52.605Z,8.68
2022-10-13T04:45:19.225Z,8.68
2022-10-13T04:47:49.340Z,8.72
2022-10-13T04:50:16.657Z,8.74
2022-10-13T04:52:45.392Z,8.69
2022-10-13T04:55:12.073Z,8.63
2022-10-13T04:57:38.680Z,8.56
2022-10-13T05:00:07.316Z,8.41
2022-10-13T05:02:37.668Z,8.33
2022-10-13T05:05:05.189Z,8.31
2022-10-13T05:07:32.541Z,8.21
2022-10-13T05:09:59.192Z,8.29
2022-10-13T05:12:25.819Z,8.34
2022-10-13T05:14:52.415Z,8.48
2022-10-13T05:17:19.043Z,8.46
2022-10-13T05:19:45.677Z,8.51
2022-10-13T05:22:12.384Z,8.48
2022-10-13T05:24:41.274Z,8.48
2022-10-13T05:27:13.196Z,8.46
2022-10-13T05:29:40.664Z,8.41
2022-10-13T05:32:08.553Z,8.52
2022-10-13T05:34:35.442Z,8.62
2022-10-13T05:37:02.129Z,8.64
2022-10-13T05:39:28.884Z,8.55
2022-10-13T05:41:55.620Z,8.55
2022-10-13T05:44:22.486Z,8.60
2022-10-13T05:46:55.968Z,8.72
2022-10-13T05:49:22.895Z,8.77
2022-10-13T05:51:55.493Z,8.82
2022-10-13T05:54:38.697Z,8.92
2022-10-13T05:57:13.887Z,8.94
2022-10-13T05:59:46.046Z,8.99
2022-10-13T06:02:15.971Z,9.07
2022-10-13T06:04:46.497Z,9.19
2022-10-13T06:07:13.365Z,9.27
2022-10-13T06:09:42.070Z,9.38
2022-10-13T06:12:09.608Z,9.49
2022-10-13T06:14:36.730Z,9.60
2022-10-13T06:17:06.374Z,9.71
2022-10-13T06:19:33.185Z,9.77
2022-10-13T06:22:07.529Z,9.89
2022-10-13T06:24:34.718Z,10.01
2022-10-13T06:27:03.784Z,10.16
2022-10-13T06:29:30.431Z,10.33
2022-10-13T06:31:57.099Z,10.47
2022-10-13T06:34:23.832Z,10.59
2022-10-13T06:36:50.539Z,10.74
2022-10-13T06:39:17.950Z,10.82
2022-10-13T06:41:44.967Z,10.96
2022-10-13T06:44:11.898Z,11.08
2022-10-13T06:46:38.502Z,11.23
2022-10-13T06:49:05.181Z,11.35
2022-10-13T06:51:32.317Z,11.45
2022-10-13T06:53:58.968Z,11.61
2022-10-13T06:56:25.616Z,11.74
2022-10-13T06:58:52.259Z,11.87
2022-10-13T07:01:19.026Z,12.03
2022-10-13T07:03:48.931Z,12.11
2022-10-13T07:06:19.222Z,12.26
2022-10-13T07:08:46.131Z,12.37
2022-10-13T07:11:16.123Z,12.45
2022-10-13T07:13:47.604Z,12.51
2022-10-13T07:16:15.924Z,12.62
2022-10-13T07:18:42.817Z,12.55
2022-10-13T07:21:09.752Z,12.64
2022-10-13T07:23:36.356Z,12.80
2022-10-13T07:26:07.547Z,12.88
2022-10-13T07:28:34.432Z,12.93
2022-10-13T07:31:07.062Z,12.93
2022-10-13T07:33:36.894Z,13.01
2022-10-13T07:36:04.491Z,13.07
2022-10-13T07:38:31.399Z,13.16
2022-10-13T07:41:02.373Z,13.14
2022-10-13T07:43:29.205Z,13.32
2022-10-13T07:45:59.529Z,13.30
2022-10-13T07:48:27.673Z,13.33
2022-10-13T07:50:56.691Z,13.23
2022-10-13T07:53:23.544Z,13.29
2022-10-13T07:55:50.428Z,13.24
2022-10-13T07:58:17.203Z,13.28
2022-10-13T08:00:43.813Z,13.37
2022-10-13T08:03:10.502Z,13.50
2022-10-13T08:05:38.341Z,13.46
2022-10-13T08:08:05.306Z,13.52
2022-10-13T08:10:32.052Z,13.56
2022-10-13T08:12:58.733Z,13.57
2022-10-13T08:15:25.519Z,13.62
2022-10-13T08:17:52.300Z,13.67
2022-10-13T08:20:19.707Z,13.75
2022-10-13T08:22:46.328Z,13.88
2022-10-13T08:25:12.999Z,14.00
2022-10-13T08:27:50.621Z,14.08
2022-10-13T08:30:18.290Z,14.12
2022-10-13T08:32:44.973Z,14.18
2022-10-13T08:35:11.854Z,14.26
2022-10-13T08:37:38.489Z,14.27
2022-10-13T08:40:05.630Z,14.34
2022-10-13T08:42:32.364Z,14.46
2022-10-13T08:48:01.982Z,14.60
2022-10-13T08:50:35.874Z,14.55
2022-10-13T08:53:30.780Z,14.70
2022-10-13T08:56:25.262Z,14.77
2022-10-13T08:58:54.472Z,14.89
2022-10-13T09:01:24.699Z,14.94
2022-10-13T09:03:57.756Z,14.97
2022-10-13T09:06:28.977Z,14.94
2022-10-13T09:08:59.599Z,15.00
2022-10-13T09:11:36.067Z,15.04
2022-10-13T09:14:07.085Z,15.06
2022-10-13T09:16:37.572Z,15.02
2022-10-13T09:19:27.519Z,15.20
2022-10-13T09:22:13.195Z,15.32
2022-10-13T09:24:40.029Z,15.31
2022-10-13T09:27:20.112Z,15.33
2022-10-13T09:29:46.936Z,15.28
2022-10-13T09:32:23.885Z,15.37
2022-10-13T09:34:52.779Z,15.40
2022-10-13T09:37:25.079Z,15.38
2022-10-13T09:40:14.647Z,15.34
2022-10-13T09:42:41.420Z,15.36
2022-10-13T09:45:17.047Z,15.49
2022-10-13T09:47:52.359Z,15.44
2022-10-13T09:50:23.178Z,15.51
2022-10-13T09:52:50.768Z,15.54
2022-10-13T09:55:31.327Z,15.55
2022-10-13T09:58:12.361Z,15.55
2022-10-13T10:00:40.576Z,15.63
2022-10-13T10:03:18.483Z,15.69
2022-10-13T10:05:50.858Z,15.74
2022-10-13T10:08:51.253Z,15.85
2022-10-13T10:11:33.107Z,15.87
2022-10-13T10:14:22.720Z,15.97
2022-10-13T10:17:01.943Z,16.08
2022-10-13T10:19:41.630Z,16.18
2022-10-13T10:22:32.853Z,16.25
2022-10-13T10:25:33.619Z,16.29
2022-10-13T10:28:12.408Z,16.36
2022-10-13T10:30:49.723Z,16.42
2022-10-13T10:33:26.305Z,16.49
2022-10-13T10:36:17.171Z,16.56
2022-10-13T10:39:00.153Z,16.69
2022-10-13T10:41:39.089Z,16.69
2022-10-13T10:44:21.574Z,16.84
2022-10-13T10:46:50.043Z,16.96
2022-10-13T10:49:30.241Z,17.04
2022-10-13T10:51:58.374Z,17.13
2022-10-13T10:54:48.404Z,17.12
2022-10-13T10:57:38.176Z,17.17
2022-10-13T11:00:11.720Z,17.33
2022-10-13T11:03:00.963Z,17.32
2022-10-13T11:06:01.528Z,17.39
2022-10-13T11:08:31.108Z,17.41
2022-10-13T11:11:26.611Z,17.49
2022-10-13T11:13:58.286Z,17.47
2022-10-13T11:16:39.564Z,17.45
2022-10-13T11:19:32.197Z,17.46
2022-10-13T11:21:59.810Z,17.40
2022-10-13T11:24:34.186Z,17.39
2022-10-13T11:27:16.136Z,17.34
2022-10-13T11:29:58.008Z,17.30
2022-10-13T11:32:27.741Z,17.25
2022-10-13T11:35:00.879Z,17.18
2022-10-13T11:37:40.010Z,17.23
2022-10-13T11:40:15.660Z,17.23
2022-10-13T11:43:09.802Z,17.21
2022-10-13T11:45:50.028Z,17.20
2022-10-13T11:48:36.583Z,17.21
2022-10-13T11:51:23.772Z,17.22
2022-10-13T11:54:16.156Z,17.21
2022-10-13T11:56:55.600Z,17.21
2022-10-13T11:59:25.550Z,17.25
2022-10-13T12:01:57.063Z,17.15
2022-10-13T12:04:26.027Z,17.13
2022-10-13T12:07:00.588Z,17.07
2022-10-13T12:09:29.480Z,17.03
2022-10-13T12:12:03.100Z,16.97
2022-10-13T12:14:35.885Z,16.94
2022-10-13T12:17:02.781Z,16.96
2022-10-13T12:19:31.788Z,16.99
2022-10-13T12:22:01.296Z,17.04
2022-10-13T12:24:29.904Z,17.03
2022-10-13T12:26:57.614Z,17.02
2022-10-13T12:29:27.879Z,17.02
2022-10-13T12:31:54.802Z,16.95
2022-10-13T12:34:28.647Z,16.92
2022-10-13T12:37:01.018Z,16.98
2022-10-13T12:39:30.953Z,16.99
2022-10-13T12:41:59.218Z,17.00
2022-10-13T12:44:28.622Z,16.97
2022-10-13T12:46:59.058Z,17.03
2022-10-13T12:49:35.374Z,16.98
2022-10-13T12:52:34.229Z,16.96
2022-10-13T12:55:01.735Z,16.84
2022-10-13T12:57:38.438Z,16.75
2022-10-13T13:00:20.540Z,16.69
2022-10-13T13:02:58.871Z,16.58
2022-10-13T13:05:34.195Z,16.49
2022-10-13T13:08:23.405Z,16.43
2022-10-13T13:11:09.438Z,16.39
2022-10-13T13:13:36.150Z,16.35
2022-10-13T13:16:21.493Z,16.38
2022-10-13T13:18:50.276Z,16.50
2022-10-13T13:21:20.146Z,16.57
2022-10-13T13:23:52.855Z,16.60
2022-10-13T13:26:23.034Z,16.69
2022-10-13T13:28:52.083Z,16.70
2022-10-13T13:31:21.034Z,16.72
2022-10-13T13:33:49.046Z,16.74
2022-10-13T13:36:19.016Z,16.85
2022-10-13T13:38:47.169Z,17.05
2022-10-13T13:41:14.551Z,17.06
2022-10-13T13:43:41.807Z,17.03
2022-10-13T13:46:21.570Z,16.99
2022-10-13T13:48:48.679Z,16.94
2022-10-13T13:51:15.519Z,16.91
2022-10-13T13:53:44.560Z,16.83
2022-10-13T13:56:18.020Z,16.75
2022-10-13T13:58:45.495Z,16.68
2022-10-13T14:01:13.442Z,16.63
2022-10-13T14:03:40.353Z,16.67
2022-10-13T14:06:08.881Z,16.63
2022-10-13T14:08:42.333Z,16.54
2022-10-13T14:11:09.889Z,16.47
2022-10-13T14:13:36.533Z,16.52
2022-10-13T14:16:03.662Z,16.42
2022-10-13T14:18:31.228Z,16.42
2022-10-13T14:20:57.867Z,16.48
2022-10-13T14:23:24.541Z,16.87
2022-10-13T14:25:51.241Z,16.76
2022-10-13T14:28:18.551Z,16.66
2022-10-13T14:30:45.450Z,16.62
2022-10-13T14:33:12.224Z,16.61
2022-10-13T14:35:38.822Z,16.56
2022-10-13T14:38:05.942Z,16.56
2022-10-13T14:40:33.676Z,16.46
2022-10-13T14:43:00.279Z,16.41
2022-10-13T14:45:26.909Z,16.36
2022-10-13T14:47:53.741Z,16.28
2022-10-13T14:50:20.395Z,16.26
2022-10-13T14:52:51.842Z,16.21
2022-10-13T14:55:18.506Z,16.19
2022-10-13T14:57:45.099Z,16.16
2022-10-13T15:00:13.681Z,16.14
2022-10-13T15:02:40.316Z,16.10
2022-10-13T15:05:07.219Z,16.08
2022-10-13T15:07:36.801Z,16.03
2022-10-13T15:10:06.709Z,15.97
2022-10-13T15:12:33.725Z,15.94
2022-10-13T15:15:00.454Z,15.91
2022-10-13T15:17:28.013Z,15.88
2022-10-13T15:19:54.805Z,15.84
2022-10-13T15:22:21.730Z,15.81
2022-10-13T15:24:48.615Z,15.78
2022-10-13T15:27:15.401Z,15.72
2022-10-13T15:29:42.003Z,15.64
2022-10-13T15:32:13.526Z,15.63
2022-10-13T15:34:41.135Z,15.59
2022-10-13T15:37:07.859Z,15.52
2022-10-13T15:39:34.586Z,15.46
2022-10-13T15:42:01.263Z,15.43
2022-10-13T15:44:28.085Z,15.42
2022-10-13T15:47:07.392Z,15.35
2022-10-13T15:49:39.532Z,15.33
2022-10-13T15:52:06.343Z,15.29
2022-10-13T15:54:33.144Z,15.27
2022-10-13T15:57:00.383Z,15.23
2022-10-13T15:59:26.975Z,15.23
2022-10-13T16:01:53.644Z,15.12
2022-10-13T16:04:20.290Z,15.03
2022-10-13T16:06:46.997Z,15.00
2022-10-13T16:09:13.604Z,14.96
2022-10-13T16:11:40.254Z,14.93
2022-10-13T16:14:06.921Z,14.93
2022-10-13T16:16:33.561Z,14.92
2022-10-13T16:19:00.353Z,14.87
2022-10-13T16:21:27.517Z,14.81
2022-10-13T16:23:54.328Z,14.68
2022-10-13T16:26:21.360Z,14.65
2022-10-13T16:28:48.220Z,14.46
2022-10-13T16:31:16.417Z,14.41
2022-10-13T16:33:45.067Z,14.35
2022-10-13T16:36:14.348Z,14.29
2022-10-13T16:38:41.619Z,14.22
2022-10-13T16:41:11.972Z,14.16
2022-10-13T16:43:38.638Z,14.04
2022-10-13T16:46:08.058Z,13.93
2022-10-13T16:48:34.957Z,13.75
2022-10-13T16:51:06.774Z,13.58
2022-10-13T16:53:34.301Z,13.46
2022-10-13T16:56:00.950Z,13.42
2022-10-13T16:58:27.618Z,13.37
2022-10-13T17:01:01.451Z,13.31
2022-10-13T17:03:28.103Z,13.28
2022-10-13T17:05:54.739Z,13.16
2022-10-13T17:08:21.412Z,13.07
2022-10-13T17:10:53.822Z,13.02
2022-10-13T17:13:24.097Z,12.97
2022-10-13T17:15:55.714Z,12.98
2022-10-13T17:18:23.289Z,12.86
2022-10-13T17:20:58.581Z,12.76
2022-10-13T17:23:26.362Z,12.69
2022-10-13T17:25:54.284Z,12.65
2022-10-13T17:28:21.398Z,12.57
2022-10-13T17:31:05.678Z,12.55
2022-10-13T17:33:35.142Z,12.51
2022-10-13T17:36:08.019Z,12.50
2022-10-13T17:38:34.871Z,12.45
2022-10-13T17:41:03.444Z,12.28
2022-10-13T17:43:30.821Z,12.19
2022-10-13T17:49:09.221Z,12.07
2022-10-13T17:51:36.213Z,12.09
2022-10-13T17:54:03.129Z,12.10
2022-10-13T17:56:30.089Z,12.06
2022-10-13T17:58:56.960Z,12.02
2022-10-13T18:01:29.606Z,11.93
2022-10-13T18:03:58.815Z,11.94
2022-10-13T18:06:32.623Z,11.95
2022-10-13T18:09:06.058Z,11.86
2022-10-13T18:11:33.970Z,11.83
2022-10-13T18:14:00.871Z,11.81
2022-10-13T18:16:27.602Z,11.86
2022-10-13T18:18:54.604Z,11.85
2022-10-13T18:21:24.002Z,11.77
2022-10-13T18:23:53.173Z,11.84
2022-10-13T18:26:20.467Z,11.87
2022-10-13T18:28:48.682Z,11.89
2022-10-13T18:31:23.593Z,11.87
2022-10-13T18:33:51.049Z,11.84
2022-10-13T18:36:23.608Z,11.81
2022-10-13T18:38:52.070Z,11.78
2022-10-13T18:41:20.815Z,11.86
2022-10-13T18:43:47.453Z,11.78
2022-10-13T18:46:16.241Z,11.89
2022-10-13T18:48:44.791Z,11.81
2022-10-13T18:51:14.334Z,11.82
2022-10-13T18:53:43.246Z,11.75
2022-10-13T18:56:21.406Z,11.69
2022-10-13T18:58:49.198Z,11.75
2022-10-13T19:01:21.974Z,11.66
2022-10-13T19:03:50.965Z,11.66
2022-10-13T19:06:19.807Z,11.66
2022-10-13T19:08:51.151Z,11.64
2022-10-13T19:11:20.055Z,11.60
2022-10-13T19:13:48.631Z,11.60
2022-10-13T19:16:18.590Z,11.55
2022-10-13T19:18:45.809Z,11.46
2022-10-13T19:21:13.160Z,11.44
2022-10-13T19:23:40.600Z,11.39
2022-10-13T19:26:21.286Z,11.42
2022-10-13T19:28:48.094Z,11.41
2022-10-13T19:31:17.813Z,11.36
2022-10-13T19:33:47.123Z,11.27
2022-10-13T19:36:37.456Z,11.20
2022-10-13T19:39:08.724Z,11.12
2022-10-13T19:41:37.449Z,11.08
2022-10-13T19:44:05.337Z,11.13
2022-10-13T19:46:50.555Z,11.02
2022-10-13T19:49:20.683Z,10.96
2022-10-13T19:51:52.109Z,10.98
2022-10-13T19:54:21.197Z,10.95
2022-10-13T19:56:51.742Z,10.91
2022-10-13T19:59:19.791Z,10.84
2022-10-13T20:01:52.424Z,10.84
2022-10-13T20:04:30.553Z,10.85
2022-10-13T20:06:59.347Z,10.85
2022-10-13T20:09:29.705Z,10.89
2022-10-13T20:11:56.802Z,10.91
2022-10-13T20:14:31.465Z,11.03
2022-10-13T20:17:00.805Z,11.04
2022-10-13T20:19:28.576Z,11.10
2022-10-13T20:22:05.075Z,11.15
2022-10-13T20:24:36.117Z,11.13
2022-10-13T20:27:04.412Z,11.25
2022-10-13T20:29:35.914Z,11.30
2022-10-13T20:32:08.800Z,11.19
2022-10-13T20:34:36.231Z,11.25
2022-10-13T20:37:09.089Z,11.20
2022-10-13T20:39:40.339Z,11.14
2022-10-13T20:42:07.157Z,11.07
2022-10-13T20:44:33.805Z,11.00
2022-10-13T20:47:00.538Z,10.88
2022-10-13T20:49:27.301Z,10.80
2022-10-13T20:51:53.894Z,10.72
2022-10-13T20:54:20.768Z,10.65
2022-10-13T20:56:47.899Z,10.61
2022-10-13T20:59:14.866Z,10.53
2022-10-13T21:01:41.672Z,10.51
2022-10-13T21:04:08.388Z,10.43
2022-10-13T21:06:36.707Z,10.26
2022-10-13T21:09:05.487Z,10.26
2022-10-13T21:11:32.738Z,10.18
2022-10-13T21:13:59.769Z,10.17
2022-10-13T21:16:28.472Z,10.31
2022-10-13T21:18:56.963Z,10.33
2022-10-13T21:21:27.118Z,10.29
2022-10-13T21:23:59.714Z,10.32
2022-10-13T21:26:28.923Z,10.30
2022-10-13T21:28:56.132Z,10.22
2022-10-13T21:31:24.010Z,10.17
2022-10-13T21:33:51.283Z,10.17
2022-10-13T21:36:30.268Z,10.10
2022-10-13T21:38:59.991Z,10.11
2022-10-13T21:41:27.576Z,10.07
2022-10-13T21:43:54.362Z,9.96
2022-10-13T21:46:29.972Z,9.90
2022-10-13T21:48:59.158Z,10.01
2022-10-13T21:51:29.174Z,9.94
2022-10-13T21:53:57.369Z,10.01
2022-10-13T21:56:25.750Z,9.92
2022-10-13T21:58:53.175Z,9.86
2022-10-13T22:01:20.713Z,9.88
2022-10-13T22:03:48.404Z,9.89
2022-10-13T22:06:19.693Z,9.88
2022-10-13T22:08:50.165Z,9.86
2022-10-13T22:11:28.369Z,9.81
2022-10-13T22:13:59.210Z,9.81
2022-10-13T22:16:29.416Z,9.81
2022-10-13T22:18:57.711Z,9.78
2022-10-13T22:21:45.907Z,9.79
2022-10-13T22:24:21.526Z,9.68
2022-10-13T22:26:49.793Z,9.64
2022-10-13T22:29:20.497Z,9.65
2022-10-13T22:31:47.199Z,9.63
2022-10-13T22:34:14.954Z,9.69
2022-10-13T22:36:44.700Z,9.85
2022-10-13T22:39:12.413Z,9.81
2022-10-13T22:41:39.183Z,9.80
2022-10-13T22:44:06.072Z,9.78
2022-10-13T22:46:34.986Z,9.69
2022-10-13T22:49:03.686Z,9.68
2022-10-13T22:51:32.350Z,9.80
2022-10-13T22:53:59.860Z,9.83
2022-10-13T22:56:29.232Z,9.75
2022-10-13T22:59:05.334Z,9.79
2022-10-13T23:01:32.306Z,9.77
2022-10-13T23:03:59.584Z,9.81
2022-10-13T23:06:29.205Z,9.80
2022-10-13T23:08:59.356Z,9.83
2022-10-13T23:11:26.173Z,9.87
2022-10-13T23:13:53.265Z,9.85
2022-10-13T23:16:23.163Z,9.84
2022-10-13T23:18:50.009Z,9.76
2022-10-13T23:21:24.517Z,9.68
2022-10-13T23:24:00.528Z,9.64
2022-10-13T23:26:28.654Z,9.55
2022-10-13T23:28:56.608Z,9.58
2022-10-13T23:31:24.555Z,9.55
2022-10-13T23:33:51.652Z,9.51
2022-10-13T23:36:21.535Z,9.42
2022-10-13T23:38:53.464Z,9.38
2022-10-13T23:41:20.129Z,9.40
2022-10-13T23:43:46.783Z,9.43
2022-10-13T23:46:13.501Z,9.51
2022-10-13T23:48:40.377Z,9.60
2022-10-13T23:51:15.573Z,9.61
2022-10-13T23:53:42.996Z,9.57
2022-10-13T23:56:11.878Z,9.56
2022-10-13T23:58:40.563Z,9.50
